createdAt,value
2023-04-16T00:02:04.101Z,100702.46
2023-04-16T00:04:36.037Z,100707.59
2023-04-16T00:07:06.659Z,100711.90
2023-04-16T00:09:38.105Z,100704.63
2023-04-16T00:12:09.249Z,100708.86
2023-04-16T00:14:40.220Z,100708.84
2023-04-16T00:17:11.183Z,100713.30
2023-04-16T00:19:44.726Z,100717.29
2023-04-16T00:22:14.135Z,100714.58
2023-04-16T00:24:43.593Z,100710.29
2023-04-16T00:27:13.648Z,100712.50
2023-04-16T00:29:44.418Z,100715.13
2023-04-16T00:32:17.168Z,100718.19
2023-04-16T00:34:47.243Z,100714.01
2023-04-16T00:37:24.463Z,100713.50
2023-04-16T00:39:55.512Z,100713.89
2023-04-16T00:42:27.998Z,100713.58
2023-04-16T00:45:17.659Z,100716.11
2023-04-16T00:47:47.527Z,100715.00
2023-04-16T00:50:18.837Z,100718.14
2023-04-16T00:52:53.049Z,100716.11
2023-04-16T00:55:23.455Z,100713.67
2023-04-16T00:57:53.166Z,100716.87
2023-04-16T01:00:24.052Z,100714.95
2023-04-16T01:02:55.918Z,100712.77
2023-04-16T01:05:27.108Z,100716.48
2023-04-16T01:07:59.794Z,100716.73
2023-04-16T01:10:30.423Z,100717.64
2023-04-16T01:13:00.968Z,100719.80
2023-04-16T01:15:31.132Z,100724.01
2023-04-16T01:18:01.762Z,100723.70
2023-04-16T01:20:36.555Z,100726.31
2023-04-16T01:23:06.566Z,100722.44
2023-04-16T01:25:36.786Z,100722.31
2023-04-16T01:28:06.936Z,100722.98
2023-04-16T01:30:37.107Z,100722.48
2023-04-16T01:33:13.948Z,100718.93
2023-04-16T01:35:43.906Z,100718.13
2023-04-16T01:38:14.857Z,100717.83
2023-04-16T01:40:44.336Z,100712.66
2023-04-16T01:43:16.925Z,100714.17
2023-04-16T01:45:47.033Z,100720.73
2023-04-16T01:48:17.199Z,100720.89
2023-04-16T01:50:48.015Z,100721.83
2023-04-16T02:46:22.028Z,100744.33
2023-04-16T04:52:21.504Z,100804.11
2023-04-16T04:54:54.898Z,100806.42
2023-04-16T04:57:25.901Z,100810.57
2023-04-16T04:59:58.641Z,100811.61
2023-04-16T05:02:30.126Z,100812.39
2023-04-16T05:05:00.823Z,100815.88
2023-04-16T05:07:31.937Z,100817.83
2023-04-16T05:10:02.271Z,100819.13
2023-04-16T05:12:36.579Z,100817.70
2023-04-16T05:15:07.264Z,100816.47
2023-04-16T05:17:37.612Z,100818.33
2023-04-16T05:20:09.289Z,100818.59
2023-04-16T05:22:39.821Z,100819.27
2023-04-16T05:25:12.020Z,100820.84
2023-04-16T05:27:42.895Z,100820.95
2023-04-16T05:30:14.102Z,100827.25
2023-04-16T05:32:45.516Z,100826.61
2023-04-16T05:35:19.984Z,100828.47
2023-04-16T05:37:50.298Z,100830.52
2023-04-16T05:40:21.719Z,100825.15
2023-04-16T05:42:51.660Z,100828.98
2023-04-16T05:45:26.679Z,100829.82
2023-04-16T05:47:58.021Z,100827.48
2023-04-16T05:50:31.338Z,100831.30
2023-04-16T05:53:01.464Z,100831.32
2023-04-16T05:55:32.372Z,100830.06
2023-04-16T05:58:04.741Z,100835.95
2023-04-16T06:00:35.073Z,100841.11
2023-04-16T06:03:11.758Z,100840.72
2023-04-16T06:05:42.345Z,100843.95
2023-04-16T06:08:12.624Z,100848.12
2023-04-16T06:10:43.384Z,100850.11
2023-04-16T06:13:15.488Z,100854.13
2023-04-16T06:15:47.489Z,100857.81
2023-04-16T06:18:17.822Z,100859.24
2023-04-16T06:20:48.482Z,100860.18
2023-04-16T06:23:18.667Z,100860.88
2023-04-16T06:25:52.207Z,100860.63
2023-04-16T06:28:27.112Z,100866.04
2023-04-16T06:30:57.140Z,100867.56
2023-04-16T06:33:27.979Z,100864.92
2023-04-16T06:36:03.503Z,100867.23
2023-04-16T06:38:40.545Z,100871.67
2023-04-16T06:41:10.143Z,100873.11
2023-04-16T06:43:40.009Z,100880.45
2023-04-16T06:46:09.887Z,100885.70
2023-04-16T06:48:47.036Z,100885.93
2023-04-16T06:51:16.955Z,100886.86
2023-04-16T06:53:47.571Z,100886.96
2023-04-16T06:56:19.075Z,100886.66
2023-04-16T06:58:51.207Z,100892.94
2023-04-16T07:01:20.787Z,100892.84
2023-04-16T07:03:50.836Z,100896.13
2023-04-16T07:06:23.113Z,100898.07
2023-04-16T07:08:56.672Z,100901.25
2023-04-16T07:11:27.423Z,100905.02
2023-04-16T07:13:58.817Z,100905.27
2023-04-16T07:16:33.322Z,100904.29
2023-04-16T07:19:03.071Z,100905.14
2023-04-16T07:21:32.374Z,100905.83
2023-04-16T07:24:02.598Z,100907.69
2023-04-16T07:26:34.156Z,100911.05
2023-04-16T07:29:04.070Z,100906.14
2023-04-16T07:31:34.371Z,100904.91
2023-04-16T07:34:03.844Z,100907.69
2023-04-16T07:36:34.263Z,100905.84
2023-04-16T07:39:10.624Z,100904.95
2023-04-16T07:41:42.171Z,100902.22
2023-04-16T07:44:11.882Z,100905.69
2023-04-16T07:46:46.807Z,100905.27
2023-04-16T07:49:17.634Z,100903.53
2023-04-16T07:51:48.198Z,100904.09
2023-04-16T07:54:18.154Z,100910.42
2023-04-16T07:56:50.895Z,100908.96
2023-04-16T07:59:24.003Z,100911.11
2023-04-16T08:01:54.523Z,100915.55
2023-04-16T08:04:27.661Z,100916.75
2023-04-16T08:06:58.211Z,100916.25
2023-04-16T08:09:29.780Z,100918.52
2023-04-16T08:12:01.259Z,100922.45
2023-04-16T08:14:31.641Z,100920.79
2023-04-16T08:17:01.073Z,100916.69
2023-04-16T08:19:31.646Z,100918.58
2023-04-16T08:22:02.868Z,100915.58
2023-04-16T08:24:34.036Z,100911.73
2023-04-16T08:27:15.522Z,100910.94
2023-04-16T08:29:50.329Z,100908.38
2023-04-16T08:32:20.661Z,100912.45
2023-04-16T08:34:50.624Z,100911.33
2023-04-16T08:37:20.797Z,100910.60
2023-04-16T08:39:51.037Z,100907.19
2023-04-16T08:42:30.440Z,100912.00
2023-04-16T08:45:16.519Z,100905.86
2023-04-16T08:47:49.716Z,100910.13
2023-04-16T08:50:27.185Z,100913.60
2023-04-16T08:53:02.622Z,100916.58
2023-04-16T08:55:42.412Z,100915.21
2023-04-16T08:58:22.982Z,100914.13
2023-04-16T09:00:54.509Z,100913.92
2023-04-16T09:03:25.659Z,100915.17
2023-04-16T09:05:56.599Z,100915.26
2023-04-16T09:08:27.372Z,100911.83
2023-04-16T09:10:57.707Z,100914.60
2023-04-16T09:13:30.207Z,100915.96
2023-04-16T09:16:03.121Z,100911.39
2023-04-16T09:18:34.958Z,100908.30
2023-04-16T09:21:05.748Z,100911.37
2023-04-16T09:23:35.935Z,100911.95
2023-04-16T09:26:08.352Z,100911.46
2023-04-16T09:28:49.150Z,100912.23
2023-04-16T09:31:20.786Z,100913.25
2023-04-16T09:34:05.236Z,100916.61
2023-04-16T09:36:37.567Z,100916.45
2023-04-16T09:39:07.394Z,100921.67
2023-04-16T09:41:40.550Z,100923.19
2023-04-16T09:44:10.695Z,100923.57
2023-04-16T09:46:44.170Z,100926.14
2023-04-16T09:49:19.732Z,100927.20
2023-04-16T09:51:54.206Z,100932.77
2023-04-16T09:54:35.432Z,100937.30
2023-04-16T09:57:07.989Z,100935.08
2023-04-16T09:59:44.757Z,100935.87
2023-04-16T10:02:16.429Z,100941.53
2023-04-16T10:04:52.896Z,100946.20
2023-04-16T10:07:30.822Z,100948.14
2023-04-16T10:10:00.409Z,100946.63
2023-04-16T10:12:33.391Z,100946.35
2023-04-16T10:15:03.536Z,100948.27
2023-04-16T10:17:33.821Z,100948.05
2023-04-16T10:20:03.878Z,100956.34
2023-04-16T10:22:36.244Z,100957.81
2023-04-16T10:25:14.916Z,100957.98
2023-04-16T10:27:56.247Z,100960.23
2023-04-16T10:30:25.215Z,100960.30
2023-04-16T10:32:53.886Z,100963.48
2023-04-16T10:35:23.082Z,100964.84
2023-04-16T10:38:16.956Z,100966.16
2023-04-16T10:40:45.789Z,100967.38
2023-04-16T10:43:18.487Z,100966.66
2023-04-16T10:45:48.057Z,100966.90
2023-04-16T10:48:21.058Z,100970.41
2023-04-16T10:50:57.795Z,100968.41
2023-04-16T10:53:27.638Z,100967.52
2023-04-16T10:56:15.933Z,100963.62
2023-04-16T10:58:47.050Z,100965.77
2023-04-16T11:01:19.861Z,100967.20
2023-04-16T11:03:50.362Z,100968.59
2023-04-16T11:06:26.854Z,100967.45
2023-04-16T11:08:56.263Z,100972.04
2023-04-16T11:11:26.595Z,100970.10
2023-04-16T11:13:58.332Z,100969.46
2023-04-16T11:16:32.193Z,100972.48
2023-04-16T11:19:04.694Z,100972.25
2023-04-16T11:21:42.994Z,100970.84
2023-04-16T11:24:13.649Z,100970.73
2023-04-16T11:26:42.509Z,100976.63
2023-04-16T11:29:15.412Z,100973.48
2023-04-16T11:31:54.745Z,100970.30
2023-04-16T11:34:23.889Z,100968.29
2023-04-16T11:36:55.663Z,100972.83
2023-04-16T11:39:24.830Z,100977.71
2023-04-16T11:41:54.144Z,100978.99
2023-04-16T11:44:27.755Z,100983.56
2023-04-16T11:46:59.014Z,100978.52
2023-04-16T11:49:29.331Z,100975.93
2023-04-16T11:51:58.393Z,100976.99
2023-04-16T11:54:27.470Z,100981.11
2023-04-16T11:56:56.414Z,100977.46
2023-04-16T11:59:25.931Z,100975.40
2023-04-16T12:01:58.418Z,100977.73
2023-04-16T12:04:30.269Z,100975.80
2023-04-16T12:07:12.229Z,100980.42
2023-04-16T12:09:44.213Z,100970.52
2023-04-16T12:12:32.431Z,100971.09
2023-04-16T12:15:05.682Z,100968.70
2023-04-16T12:17:36.009Z,100968.09
2023-04-16T12:20:09.549Z,100969.07
2023-04-16T12:22:44.957Z,100968.34
2023-04-16T12:25:17.466Z,100968.82
2023-04-16T12:27:51.501Z,100969.07
2023-04-16T12:30:23.518Z,100964.92
2023-04-16T12:33:12.193Z,100967.52
2023-04-16T12:35:43.893Z,100972.21
2023-04-16T12:38:12.805Z,100966.75
2023-04-16T12:40:42.028Z,100964.95
2023-04-16T12:43:13.450Z,100961.20
2023-04-16T12:45:42.771Z,100962.14
2023-04-16T12:48:11.975Z,100963.77
2023-04-16T12:50:44.703Z,100963.11
2023-04-16T12:53:13.518Z,100960.52
2023-04-16T12:55:42.249Z,100957.62
2023-04-16T12:58:12.559Z,100957.73
2023-04-16T13:00:41.766Z,100957.11
2023-04-16T13:03:10.795Z,100961.90
2023-04-16T13:05:40.895Z,100958.90
2023-04-16T13:08:09.957Z,100957.09
2023-04-16T13:10:39.381Z,100956.73
2023-04-16T13:13:08.484Z,100959.51
2023-04-16T13:15:37.515Z,100959.29
2023-04-16T13:18:06.728Z,100956.65
2023-04-16T13:20:36.336Z,100957.56
2023-04-16T13:23:05.559Z,100960.20
2023-04-16T13:25:34.615Z,100958.70
2023-04-16T13:28:03.470Z,100958.10
2023-04-16T13:30:33.818Z,100958.77
2023-04-16T13:33:03.135Z,100958.59
2023-04-16T13:35:32.858Z,100960.45
2023-04-16T13:38:01.619Z,100961.83
2023-04-16T13:40:30.638Z,100959.71
2023-04-16T13:42:59.584Z,100964.04
2023-04-16T13:45:28.347Z,100962.31
2023-04-16T13:47:57.734Z,100964.66
2023-04-16T13:50:26.588Z,100968.70
2023-04-16T13:52:55.595Z,100967.41
2023-04-16T13:55:24.534Z,100965.84
2023-04-16T13:57:53.694Z,100961.03
2023-04-16T14:00:22.853Z,100961.43
2023-04-16T14:02:52.203Z,100963.61
2023-04-16T14:05:21.304Z,100964.70
2023-04-16T14:07:50.468Z,100962.64
2023-04-16T14:10:19.432Z,100962.91
2023-04-16T14:12:48.320Z,100962.60
2023-04-16T14:15:17.145Z,100960.54
2023-04-16T14:17:46.085Z,100958.20
2023-04-16T14:20:15.010Z,100959.27
2023-04-16T14:22:44.524Z,100954.44
2023-04-16T14:25:13.250Z,100955.17
2023-04-16T14:27:43.185Z,100958.10
2023-04-16T14:30:12.081Z,100955.92
2023-04-16T14:32:42.115Z,100955.77
2023-04-16T14:35:11.255Z,100956.95
2023-04-16T14:37:41.253Z,100954.61
2023-04-16T14:40:11.494Z,100953.32
2023-04-16T14:42:40.810Z,100954.26
2023-04-16T14:45:10.045Z,100959.63
2023-04-16T14:47:46.334Z,100957.66
2023-04-16T14:50:15.928Z,100959.16
2023-04-16T14:52:44.972Z,100962.05
2023-04-16T14:55:13.769Z,100963.24
2023-04-16T14:57:43.094Z,100962.30
2023-04-16T15:00:13.714Z,100967.42
2023-04-16T15:02:43.657Z,100967.15
2023-04-16T15:05:12.351Z,100966.40
2023-04-16T15:07:41.533Z,100964.02
2023-04-16T15:10:11.245Z,100960.52
2023-04-16T15:12:41.511Z,100955.88
2023-04-16T15:15:11.125Z,100957.54
2023-04-16T15:17:40.682Z,100956.63
2023-04-16T15:20:09.993Z,100954.55
2023-04-16T15:22:38.937Z,100954.77
2023-04-16T15:25:08.524Z,100949.73
2023-04-16T15:27:38.629Z,100946.97
2023-04-16T15:30:10.148Z,100948.09
2023-04-16T15:32:39.743Z,100948.68
2023-04-16T15:35:11.205Z,100952.30
2023-04-16T15:37:40.677Z,100954.14
2023-04-16T15:40:11.336Z,100951.41
2023-04-16T15:42:40.829Z,100956.22
2023-04-16T15:45:10.312Z,100957.21
2023-04-16T15:47:41.670Z,100952.45
2023-04-16T15:50:10.719Z,100954.86
2023-04-16T15:52:40.778Z,100957.73
2023-04-16T15:55:10.369Z,100957.48
2023-04-16T15:57:39.696Z,100955.40
2023-04-16T16:00:14.275Z,100959.46
2023-04-16T16:02:44.232Z,100958.16
2023-04-16T16:05:16.239Z,100961.58
2023-04-16T16:07:47.377Z,100961.88
2023-04-16T16:10:16.326Z,100968.43
2023-04-16T16:12:45.077Z,100965.83
2023-04-16T16:15:14.088Z,100967.74
2023-04-16T16:17:43.193Z,100967.27
2023-04-16T16:20:13.072Z,100967.12
2023-04-16T16:22:45.626Z,100967.77
2023-04-16T16:25:14.596Z,100971.68
2023-04-16T16:27:44.222Z,100971.59
2023-04-16T16:30:13.555Z,100969.70
2023-04-16T16:32:44.329Z,100973.26
2023-04-16T16:35:13.291Z,100973.75
2023-04-16T16:37:42.793Z,100974.40
2023-04-16T16:40:12.259Z,100973.01
2023-04-16T16:42:41.423Z,100972.34
2023-04-16T16:45:11.135Z,100969.20
2023-04-16T16:47:40.068Z,100965.44
2023-04-16T16:50:11.652Z,100965.68
2023-04-16T16:52:40.392Z,100965.46
2023-04-16T16:55:11.413Z,100966.77
2023-04-16T16:57:42.137Z,100973.17
2023-04-16T17:00:15.458Z,100971.71
2023-04-16T17:02:44.661Z,100974.77
2023-04-16T17:05:14.017Z,100975.08
2023-04-16T17:07:42.796Z,100976.29
2023-04-16T17:10:13.884Z,100979.14
2023-04-16T17:12:43.019Z,100980.93
2023-04-16T17:15:12.441Z,100982.43
2023-04-16T17:17:41.314Z,100986.02
2023-04-16T17:20:11.234Z,100992.67
2023-04-16T17:22:41.073Z,100997.84
2023-04-16T17:25:10.403Z,100998.15
2023-04-16T17:27:42.285Z,101000.13
2023-04-16T17:30:11.296Z,100997.55
2023-04-16T17:32:40.409Z,100997.92
2023-04-16T17:35:10.548Z,101001.56
2023-04-16T17:37:39.478Z,101002.23
2023-04-16T17:40:09.157Z,101003.95
2023-04-16T17:42:38.110Z,101009.13
2023-04-16T17:45:07.997Z,101005.30
2023-04-16T17:47:36.880Z,101003.61
2023-04-16T17:50:06.554Z,101009.27
2023-04-16T17:52:38.444Z,101009.06
2023-04-16T17:55:08.049Z,101012.52
2023-04-16T17:57:37.666Z,101012.83
2023-04-16T18:00:10.233Z,101014.84
2023-04-16T18:02:43.252Z,101017.89
2023-04-16T18:05:12.395Z,101020.67
2023-04-16T18:07:50.719Z,101019.92
2023-04-16T18:10:20.096Z,101022.61
2023-04-16T18:12:49.419Z,101021.20
2023-04-16T18:15:18.829Z,101022.06
2023-04-16T18:17:48.898Z,101019.89
2023-04-16T18:20:20.141Z,101022.08
2023-04-16T18:22:49.161Z,101020.06
2023-04-16T18:25:20.742Z,101022.45
2023-04-16T18:27:55.149Z,101025.46
2023-04-16T18:30:26.680Z,101029.36
2023-04-16T18:33:21.425Z,101026.84
2023-04-16T18:35:45.443Z,101023.55
2023-04-16T18:38:14.593Z,101027.20
2023-04-16T18:40:43.635Z,101023.11
2023-04-16T18:43:13.433Z,101024.40
2023-04-16T18:45:42.878Z,101025.51
2023-04-16T18:48:11.932Z,101022.63
2023-04-16T18:50:41.512Z,101021.00
2023-04-16T18:53:10.810Z,101017.43
2023-04-16T18:55:39.913Z,101021.10
2023-04-16T18:58:09.202Z,101020.86
2023-04-16T19:00:38.710Z,101021.45
2023-04-16T19:03:07.998Z,101023.36
2023-04-16T19:05:37.957Z,101023.11
2023-04-16T19:08:06.927Z,101016.05
2023-04-16T19:10:37.532Z,101015.39
2023-04-16T19:13:06.708Z,101016.21
2023-04-16T19:15:36.053Z,101014.19
2023-04-16T19:18:05.952Z,101014.88
2023-04-16T19:20:36.110Z,101014.43
2023-04-16T19:23:06.016Z,101017.83
2023-04-16T19:25:39.410Z,101016.33
2023-04-16T19:28:08.720Z,101015.14
2023-04-16T19:30:39.838Z,101013.92
2023-04-16T19:33:08.913Z,101009.67
2023-04-16T19:35:37.956Z,101008.67
2023-04-16T19:38:10.685Z,101009.25
2023-04-16T19:40:41.035Z,101004.60
2023-04-16T19:43:10.117Z,101011.27
2023-04-16T19:45:47.098Z,101010.90
2023-04-16T19:48:16.671Z,101005.55
2023-04-16T19:50:46.137Z,101003.11
2023-04-16T19:53:17.513Z,101004.39
2023-04-16T19:55:46.572Z,101005.55
2023-04-16T19:58:15.992Z,101007.69
2023-04-16T20:00:45.228Z,101003.14
2023-04-16T20:03:14.566Z,101005.60
2023-04-16T20:05:44.185Z,101004.63
2023-04-16T20:08:13.057Z,101001.05
2023-04-16T20:10:42.062Z,101002.63
2023-04-16T20:13:14.361Z,101003.27
2023-04-16T20:15:44.321Z,101000.94
2023-04-16T20:18:14.111Z,101000.38
2023-04-16T20:20:43.370Z,100997.98
2023-04-16T20:23:12.108Z,100998.71
2023-04-16T20:25:44.277Z,100999.00
2023-04-16T20:28:16.944Z,100996.08
2023-04-16T20:30:46.385Z,101000.99
2023-04-16T20:33:16.092Z,100999.19
2023-04-16T20:35:45.800Z,100996.41
2023-04-16T20:38:14.806Z,100997.86
2023-04-16T20:40:45.618Z,100994.55
2023-04-16T20:43:19.178Z,100995.83
2023-04-16T20:45:50.356Z,100996.71
2023-04-16T20:48:19.525Z,100991.48
2023-04-16T20:50:49.192Z,100992.02
2023-04-16T20:53:20.736Z,100988.67
2023-04-16T20:55:49.796Z,100986.89
2023-04-16T20:58:19.052Z,100989.52
2023-04-16T21:00:52.010Z,100986.73
2023-04-16T21:03:21.204Z,100984.35
2023-04-16T21:05:50.883Z,100988.91
2023-04-16T21:08:23.627Z,100986.73
2023-04-16T21:10:52.475Z,100984.81
2023-04-16T21:13:22.550Z,100981.55
2023-04-16T21:15:51.659Z,100975.58
2023-04-16T21:18:20.720Z,100979.16
2023-04-16T21:20:49.600Z,100978.97
2023-04-16T21:23:18.493Z,100980.21
2023-04-16T21:25:47.403Z,100976.08
2023-04-16T21:28:16.260Z,100978.37
2023-04-16T21:30:45.160Z,100972.65
2023-04-16T21:33:15.079Z,100967.42
2023-04-16T21:35:44.315Z,100965.27
2023-04-16T21:38:13.567Z,100960.48
2023-04-16T21:40:42.419Z,100961.02
2023-04-16T21:43:11.333Z,100958.15
2023-04-16T21:45:41.485Z,100953.12
2023-04-16T21:48:10.852Z,100952.88
2023-04-16T21:50:40.086Z,100951.98
2023-04-16T21:53:08.952Z,100947.86
2023-04-16T21:55:38.290Z,100945.86
2023-04-16T21:58:07.421Z,100947.10
2023-04-16T22:00:36.440Z,100947.48
2023-04-16T22:03:05.718Z,100945.84
2023-04-16T22:05:35.067Z,100943.14
2023-04-16T22:08:17.042Z,100942.27
2023-04-16T22:10:50.456Z,100942.80
2023-04-16T22:13:19.455Z,100944.01
2023-04-16T22:15:48.930Z,100942.48
2023-04-16T22:18:18.597Z,100944.15
2023-04-16T22:20:51.464Z,100942.52
2023-04-16T22:23:21.832Z,100946.91
2023-04-16T22:25:51.025Z,100947.16
2023-04-16T22:28:20.102Z,100942.98
2023-04-16T22:30:49.623Z,100941.89
2023-04-16T22:33:19.087Z,100940.00
2023-04-16T22:35:47.865Z,100942.75
2023-04-16T22:38:18.620Z,100941.20
2023-04-16T22:40:49.333Z,100939.58
2023-04-16T22:43:18.481Z,100937.10
2023-04-16T22:45:47.224Z,100933.89
2023-04-16T22:48:17.670Z,100931.89
2023-04-16T22:50:48.821Z,100931.07
2023-04-16T22:53:17.560Z,100931.66
2023-04-16T22:55:46.576Z,100928.59
2023-04-16T22:58:17.167Z,100930.98
2023-04-16T23:00:48.019Z,100929.14
2023-04-16T23:03:17.302Z,100930.78
2023-04-16T23:05:46.233Z,100925.45
2023-04-16T23:08:15.217Z,100921.42
2023-04-16T23:10:45.200Z,100919.55
2023-04-16T23:13:14.075Z,100916.23
2023-04-16T23:15:44.189Z,100910.94
2023-04-16T23:18:13.963Z,100910.94
2023-04-16T23:20:43.034Z,100909.07
2023-04-16T23:23:11.942Z,100905.89
2023-04-16T23:25:42.053Z,100902.08
2023-04-16T23:35:11.308Z,100894.30
2023-04-16T23:51:19.242Z,100882.25
